Time;durP1;ratioP1;P1;durP2;ratioP2;P2;SDS_P1;SDS_P2;PMS_P1;PMS_P2;Temp;Humidity;BMP_temperature;BMP_pressure;BME280_temperature;BME280_humidity;BME280_pressure;Samples;Min_cycle;Max_cycle;Signal;HPM_P1;HPM_P2
2022/08/27 00:01:35;;;;;;;10.60;4.07;;;21.20;59.40;;;;;;5034277;28;20295;-96
2022/08/27 00:04:27;;;;;;;8.20;3.63;;;21.10;59.40;;;;;;5033739;28;20198;-95
2022/08/27 00:06:57;;;;;;;11.50;4.30;;;21.10;60.10;;;;;;5031535;28;20213;-96
2022/08/27 00:09:26;;;;;;;10.60;4.23;;;21.10;59.40;;;;;;5031789;28;20216;-96
2022/08/27 00:11:55;;;;;;;10.63;3.90;;;21.00;59.50;;;;;;5033122;28;20211;-96
2022/08/27 00:14:23;;;;;;;7.27;2.80;;;21.00;59.70;;;;;;5034793;28;20568;-95
2022/08/27 00:16:53;;;;;;;8.03;3.03;;;21.00;59.50;;;;;;5033680;28;20209;-95
2022/08/27 00:19:20;;;;;;;10.53;4.00;;;21.00;59.40;;;;;;5034970;28;20254;-96
2022/08/27 00:21:49;;;;;;;8.20;3.33;;;20.90;59.40;;;;;;5035322;28;20204;-95
2022/08/27 00:24:17;;;;;;;6.10;2.73;;;20.90;59.60;;;;;;5034971;28;20196;-95
2022/08/27 00:26:49;;;;;;;7.23;2.80;;;20.90;60.00;;;;;;5037226;28;20620;-96
2022/08/27 00:29:16;;;;;;;9.20;3.77;;;20.90;60.50;;;;;;5037469;28;20237;-95
2022/08/27 00:31:55;;;;;;;5.97;2.33;;;20.80;59.90;;;;;;5034504;28;20676;-95
2022/08/27 00:34:23;;;;;;;8.80;3.60;;;20.80;60.40;;;;;;5031763;28;20203;-95
2022/08/27 00:36:51;;;;;;;9.50;3.93;;;20.80;59.80;;;;;;5034019;28;20263;-95
2022/08/27 00:39:22;;;;;;;7.93;3.23;;;20.80;59.80;;;;;;5034577;28;20217;-96
2022/08/27 00:41:51;;;;;;;5.67;2.80;;;20.70;59.70;;;;;;5035727;28;20189;-96
2022/08/27 00:44:21;;;;;;;8.97;2.90;;;20.70;60.00;;;;;;5034946;28;20572;-95
2022/08/27 00:46:52;;;;;;;9.33;4.20;;;20.60;60.70;;;;;;5036424;28;20228;-95
2022/08/27 00:49:22;;;;;;;10.77;4.07;;;20.60;60.20;;;;;;5033196;28;20731;-96
2022/08/27 00:51:53;;;;;;;9.60;3.97;;;20.60;60.20;;;;;;5032445;28;20212;-95
2022/08/27 00:54:22;;;;;;;6.47;3.00;;;20.60;60.50;;;;;;5040280;22;20236;-95
2022/08/27 00:56:54;;;;;;;7.70;3.23;;;20.60;60.60;;;;;;5031807;28;20272;-96
2022/08/27 00:59:23;;;;;;;7.63;3.30;;;20.50;60.80;;;;;;5032344;28;20208;-95
2022/08/27 01:04:43;;;;;;;7.07;2.80;;;20.50;60.90;;;;;;5034721;28;20200;-95
2022/08/27 01:07:26;;;;;;;10.43;3.80;;;20.40;60.90;;;;;;5036740;28;20567;-96
2022/08/27 01:10:19;;;;;;;11.53;3.90;;;20.40;61.00;;;;;;5041843;28;20224;-95
2022/08/27 01:12:49;;;;;;;9.10;3.77;;;20.40;62.10;;;;;;5037432;28;20208;-95
2022/08/27 01:15:25;;;;;;;6.77;2.93;;;20.30;61.00;;;;;;5035428;28;20624;-95
2022/08/27 01:17:54;;;;;;;9.90;3.93;;;20.30;61.40;;;;;;5040753;28;20208;-95
2022/08/27 01:20:24;;;;;;;10.77;3.97;;;20.30;61.00;;;;;;5045055;28;20215;-96
2022/08/27 01:23:14;;;;;;;8.77;3.70;;;20.20;60.80;;;;;;5047262;28;20204;-95
2022/08/27 01:25:49;;;;;;;8.07;3.40;;;20.20;61.40;;;;;;5042073;28;20186;-95
2022/08/27 01:28:23;;;;;;;6.13;2.80;;;20.20;61.00;;;;;;5035472;28;20234;-95
2022/08/27 01:33:41;;;;;;;10.00;3.60;;;20.10;60.90;;;;;;5027464;28;20496;-95
2022/08/27 01:36:09;;;;;;;4.27;2.33;;;20.10;61.10;;;;;;5034468;28;20221;-95
2022/08/27 01:38:46;;;;;;;6.73;2.87;;;20.10;61.00;;;;;;5034220;28;20642;-96
2022/08/27 01:41:17;;;;;;;5.53;2.57;;;20.10;61.50;;;;;;5034665;28;20639;-95
2022/08/27 01:43:45;;;;;;;5.03;2.57;;;20.00;61.20;;;;;;5034114;28;20202;-95
2022/08/27 01:46:21;;;;;;;12.10;4.53;;;20.00;60.90;;;;;;5033628;28;20220;-95
2022/08/27 01:51:37;;;;;;;9.63;3.30;;;19.90;61.60;;;;;;5033631;28;20208;-95
2022/08/27 01:54:05;;;;;;;9.10;3.80;;;19.90;61.20;;;;;;5038093;28;20216;-94
2022/08/27 01:56:35;;;;;;;6.57;3.10;;;19.90;61.30;;;;;;5043033;28;20291;-95
2022/08/27 01:59:03;;;;;;;7.70;3.07;;;19.90;61.50;;;;;;5050458;28;20200;-95
2022/08/27 02:01:49;;;;;;;5.47;2.63;;;19.80;61.30;;;;;;5055003;28;20216;-95
2022/08/27 02:04:16;;;;;;;10.47;3.80;;;19.80;61.70;;;;;;5060662;28;20211;-95
2022/08/27 02:06:44;;;;;;;9.07;3.57;;;19.80;61.90;;;;;;5061131;28;20227;-95
2022/08/27 02:09:13;;;;;;;5.70;2.90;;;19.70;62.20;;;;;;5058017;28;20237;-95
2022/08/27 02:11:42;;;;;;;7.07;3.07;;;19.70;62.50;;;;;;5058739;28;20204;-93
2022/08/27 02:14:10;;;;;;;7.27;3.00;;;19.70;62.20;;;;;;5067511;28;20505;-94
2022/08/27 02:16:51;;;;;;;4.90;2.20;;;19.60;62.00;;;;;;5063118;28;20207;-95
2022/08/27 02:19:20;;;;;;;6.77;2.70;;;19.60;62.50;;;;;;5057257;28;20237;-95
2022/08/27 02:22:10;;;;;;;10.73;3.77;;;19.60;62.20;;;;;;5057256;28;20224;-94
2022/08/27 02:24:50;;;;;;;6.47;2.97;;;19.50;62.50;;;;;;5054922;28;20285;-95
2022/08/27 02:27:20;;;;;;;5.27;2.63;;;19.50;62.40;;;;;;5057704;28;20250;-95
2022/08/27 02:30:23;;;;;;;7.60;2.83;;;19.50;62.20;;;;;;5251794;22;20275;-95
2022/08/27 02:35:16;;;;;;;16.57;6.23;;;19.50;62.30;;;;;;5079600;22;20247;-95
2022/08/27 02:37:45;;;;;;;6.47;2.60;;;19.40;62.40;;;;;;5037349;28;20216;-95
2022/08/27 02:40:17;;;;;;;13.13;4.37;;;19.40;62.70;;;;;;5042729;28;20212;-95
2022/08/27 02:42:49;;;;;;;13.90;4.60;;;19.40;62.80;;;;;;5044929;28;20199;-95
2022/08/27 02:45:19;;;;;;;11.87;4.27;;;19.40;62.80;;;;;;5055354;28;20204;-95
2022/08/27 02:47:48;;;;;;;8.27;3.60;;;19.40;62.90;;;;;;5054668;28;20227;-95
2022/08/27 02:50:32;;;;;;;9.13;3.50;;;19.30;62.90;;;;;;5045781;28;20231;-95
2022/08/27 02:53:04;;;;;;;11.20;2.40;;;19.30;63.40;;;;;;5037971;28;20208;-94
2022/08/27 02:55:43;;;;;;;12.60;4.23;;;19.30;63.20;;;;;;5038258;28;20204;-95
2022/08/27 02:58:15;;;;;;;6.17;2.80;;;19.30;63.70;;;;;;5037781;28;20203;-95
2022/08/27 03:00:44;;;;;;;8.60;3.47;;;19.30;63.70;;;;;;5037696;28;20603;-96
2022/08/27 03:06:25;;;;;;;8.27;3.03;;;19.40;64.60;;;;;;5028552;28;20212;-95
2022/08/27 03:08:52;;;;;;;7.60;2.93;;;19.30;63.70;;;;;;5035864;28;20227;-96
2022/08/27 03:11:21;;;;;;;6.33;2.93;;;19.40;63.50;;;;;;5035589;28;20604;-96
2022/08/27 03:13:54;;;;;;;7.53;3.00;;;19.40;63.70;;;;;;5035986;28;20204;-95
2022/08/27 03:16:26;;;;;;;8.80;3.60;;;19.40;64.40;;;;;;5036173;28;20264;-95
2022/08/27 03:18:53;;;;;;;8.83;3.37;;;19.30;64.10;;;;;;5036336;28;20193;-95
2022/08/27 03:21:26;;;;;;;5.03;2.43;;;19.30;63.60;;;;;;5037295;28;20212;-95
2022/08/27 03:23:55;;;;;;;6.60;3.00;;;19.30;63.80;;;;;;5036472;28;20208;-95
2022/08/27 03:26:27;;;;;;;10.17;4.20;;;19.30;63.60;;;;;;5035441;28;20253;-96
2022/08/27 03:28:58;;;;;;;5.97;2.63;;;19.30;63.70;;;;;;5035232;28;20228;-95
2022/08/27 03:31:28;;;;;;;9.80;3.63;;;19.30;63.60;;;;;;5035099;28;20241;-95
2022/08/27 03:34:01;;;;;;;8.93;3.10;;;19.30;63.60;;;;;;5035138;28;20216;-95
2022/08/27 03:36:30;;;;;;;8.27;2.93;;;19.30;63.60;;;;;;5034652;28;20242;-95
2022/08/27 03:38:58;;;;;;;4.67;2.47;;;19.30;63.50;;;;;;5035038;28;20212;-95
2022/08/27 03:41:26;;;;;;;7.03;2.90;;;19.30;63.50;;;;;;5034763;28;20238;-95
2022/08/27 03:43:58;;;;;;;7.70;3.63;;;19.20;63.50;;;;;;5034703;28;20261;-95
2022/08/27 03:46:28;;;;;;;10.00;3.93;;;19.30;64.00;;;;;;5035253;28;20257;-95
2022/08/27 03:49:30;;;;;;;8.10;3.10;;;19.20;63.50;;;;;;5034659;28;20717;-96
2022/08/27 03:52:02;;;;;;;12.37;4.17;;;19.20;63.90;;;;;;5034699;28;20513;-94
2022/08/27 03:54:31;;;;;;;7.93;3.47;;;19.20;63.80;;;;;;5034380;28;20204;-94
2022/08/27 03:56:59;;;;;;;5.50;2.50;;;19.10;63.50;;;;;;5034221;28;20227;-94
2022/08/27 03:59:55;;;;;;;10.00;2.93;;;19.10;63.80;;;;;;5034418;28;20214;-93
2022/08/27 04:02:30;;;;;;;8.70;2.70;;;19.10;64.80;;;;;;5029223;28;20266;-94
2022/08/27 04:04:57;;;;;;;6.63;3.10;;;19.00;63.70;;;;;;5034480;28;20248;-94
2022/08/27 04:07:28;;;;;;;10.37;4.03;;;19.00;63.60;;;;;;5034222;28;20390;-94
2022/08/27 04:09:58;;;;;;;9.10;3.67;;;19.00;64.10;;;;;;5034224;28;20820;-94
2022/08/27 04:12:26;;;;;;;8.50;3.27;;;18.90;64.50;;;;;;5034869;28;20283;-94
2022/08/27 04:14:54;;;;;;;7.27;3.37;;;18.90;64.50;;;;;;5034806;28;20199;-94
2022/08/27 04:17:32;;;;;;;11.83;3.90;;;18.90;64.50;;;;;;5034071;28;20227;-94
2022/08/27 04:20:18;;;;;;;7.03;2.90;;;18.80;64.80;;;;;;5034994;28;20217;-94
2022/08/27 04:22:55;;;;;;;5.70;2.43;;;18.80;64.90;;;;;;5034556;28;20193;-94
2022/08/27 04:25:33;;;;;;;7.63;2.97;;;18.80;64.80;;;;;;5034442;28;20211;-94
2022/08/27 04:28:27;;;;;;;8.70;3.27;;;18.80;64.50;;;;;;5032753;28;20211;-94
2022/08/27 04:31:03;;;;;;;10.97;3.77;;;18.80;65.40;;;;;;5033727;28;20212;-94
2022/08/27 04:33:42;;;;;;;9.23;3.60;;;18.80;65.20;;;;;;5033714;28;20234;-94
2022/08/27 04:36:11;;;;;;;12.67;4.47;;;18.80;65.40;;;;;;5032172;28;20220;-94
2022/08/27 04:38:53;;;;;;;11.33;4.03;;;18.80;64.90;;;;;;5044031;28;20218;-95
2022/08/27 04:41:23;;;;;;;7.13;3.07;;;18.80;65.50;;;;;;5035191;28;20853;-94
2022/08/27 04:43:58;;;;;;;5.63;2.50;;;18.80;65.10;;;;;;5034389;28;20215;-94
2022/08/27 04:46:42;;;;;;;7.70;3.40;;;18.80;65.70;;;;;;5034195;28;20210;-95
2022/08/27 04:49:15;;;;;;;8.93;3.43;;;18.90;65.90;;;;;;5033206;28;20551;-94
2022/08/27 04:51:44;;;;;;;14.43;4.43;;;18.90;65.50;;;;;;5032822;28;20258;-94
2022/08/27 04:54:13;;;;;;;11.00;3.73;;;18.90;65.40;;;;;;5032651;28;20295;-94
2022/08/27 04:56:40;;;;;;;8.37;3.67;;;18.90;65.30;;;;;;5036149;28;20275;-92
2022/08/27 04:59:10;;;;;;;5.57;2.50;;;18.90;65.20;;;;;;5040378;28;20188;-94
2022/08/27 05:01:41;;;;;;;7.33;3.00;;;18.90;65.30;;;;;;5033659;28;20552;-95
2022/08/27 05:04:10;;;;;;;6.37;2.97;;;18.90;65.30;;;;;;5033899;28;20205;-95
2022/08/27 05:06:37;;;;;;;9.93;3.93;;;18.90;65.20;;;;;;5034218;28;20217;-94
2022/08/27 05:09:15;;;;;;;6.93;3.03;;;18.90;65.20;;;;;;5032964;28;20594;-94
2022/08/27 05:11:45;;;;;;;11.67;4.30;;;18.90;65.90;;;;;;5033391;28;20207;-95
2022/08/27 05:14:18;;;;;;;7.53;2.97;;;18.90;65.80;;;;;;5033367;28;20224;-95
2022/08/27 05:16:57;;;;;;;6.43;2.83;;;18.90;65.90;;;;;;5033084;28;20211;-95
2022/08/27 05:19:26;;;;;;;13.07;4.20;;;18.90;66.30;;;;;;5032366;28;20202;-95
2022/08/27 05:21:53;;;;;;;20.93;6.40;;;18.90;66.00;;;;;;5032101;28;20226;-95
2022/08/27 05:24:21;;;;;;;11.20;4.10;;;18.90;66.10;;;;;;5030947;28;20607;-94
2022/08/27 05:26:49;;;;;;;9.73;4.20;;;18.90;66.20;;;;;;5031016;28;20231;-95
2022/08/27 05:29:17;;;;;;;8.87;3.60;;;18.90;66.20;;;;;;5030754;28;20255;-95
2022/08/27 05:31:47;;;;;;;9.40;3.87;;;18.90;66.20;;;;;;5031281;28;20618;-95
2022/08/27 05:34:17;;;;;;;15.13;5.63;;;18.90;66.20;;;;;;5031896;28;20207;-94
2022/08/27 05:36:46;;;;;;;14.50;5.27;;;19.00;66.70;;;;;;5031578;28;20220;-94
2022/08/27 05:39:19;;;;;;;11.53;4.00;;;19.00;66.80;;;;;;5032911;28;20208;-94
2022/08/27 05:41:46;;;;;;;8.73;3.60;;;19.00;67.50;;;;;;5032975;28;20207;-94
2022/08/27 05:44:16;;;;;;;10.23;3.93;;;19.00;67.00;;;;;;5036352;28;20204;-95
2022/08/27 05:46:44;;;;;;;7.40;3.57;;;19.00;67.20;;;;;;5036893;28;20215;-95
2022/08/27 05:49:15;;;;;;;9.43;4.20;;;19.10;67.30;;;;;;5044101;22;20240;-95
2022/08/27 05:51:43;;;;;;;18.60;6.17;;;19.10;67.60;;;;;;5037436;28;20205;-93
2022/08/27 05:56:54;;;;;;;7.37;3.90;;;19.20;67.70;;;;;;5036189;28;20348;-95
2022/08/27 06:02:39;;;;;;;11.57;4.60;;;19.30;68.10;;;;;;5035797;28;20211;-94
2022/08/27 06:05:08;;;;;;;6.80;3.07;;;19.40;68.50;;;;;;5036729;28;20215;-94
2022/08/27 06:07:38;;;;;;;8.80;3.73;;;19.40;67.90;;;;;;5036937;28;20204;-95
2022/08/27 06:10:09;;;;;;;10.77;4.00;;;19.50;68.10;;;;;;5036854;28;20607;-94
2022/08/27 06:12:36;;;;;;;7.70;3.23;;;19.50;68.30;;;;;;5037052;28;20301;-94
2022/08/27 06:17:59;;;;;;;8.07;3.57;;;19.70;69.10;;;;;;5038245;28;20223;-94
2022/08/27 06:20:32;;;;;;;10.13;4.33;;;19.80;69.10;;;;;;5037617;28;20204;-94
2022/08/27 06:23:01;;;;;;;12.07;4.87;;;19.90;69.50;;;;;;5019643;28;20231;-95
2022/08/27 06:25:31;;;;;;;10.07;4.00;;;19.90;69.10;;;;;;5038225;28;20521;-95
2022/08/27 06:27:58;;;;;;;8.43;3.90;;;20.00;69.20;;;;;;5036974;28;20204;-95
2022/08/27 06:30:26;;;;;;;9.17;3.70;;;20.10;69.30;;;;;;5038668;28;20232;-95
2022/08/27 06:32:59;;;;;;;6.20;2.90;;;20.20;69.50;;;;;;5039233;28;20200;-95
2022/08/27 06:35:27;;;;;;;5.67;2.43;;;20.20;69.70;;;;;;5036461;28;20300;-95
2022/08/27 06:37:54;;;;;;;13.90;5.20;;;20.40;69.40;;;;;;5038285;28;20193;-95
2022/08/27 06:40:23;;;;;;;11.67;4.70;;;20.50;69.10;;;;;;5038071;28;20240;-95
2022/08/27 06:42:50;;;;;;;15.37;6.00;;;20.60;69.20;;;;;;5288452;22;21123;-94
2022/08/27 06:45:17;;;;;;;14.03;5.30;;;20.60;69.00;;;;;;5177896;22;20220;-96
2022/08/27 06:48:01;;;;;;;10.57;4.33;;;20.70;68.80;;;;;;5056132;28;20200;-94
2022/08/27 06:50:28;;;;;;;10.40;3.77;;;20.80;68.90;;;;;;5055552;28;20283;-94
2022/08/27 06:52:55;;;;;;;9.93;4.00;;;20.90;68.40;;;;;;5050732;28;20236;-95
2022/08/27 06:55:25;;;;;;;15.20;4.73;;;21.00;68.00;;;;;;5049517;28;20600;-95
2022/08/27 06:57:55;;;;;;;7.07;2.80;;;21.10;68.10;;;;;;5044407;28;20258;-95
2022/08/27 07:00:22;;;;;;;7.93;3.40;;;21.10;67.80;;;;;;5037259;28;20251;-94
2022/08/27 07:02:51;;;;;;;5.83;2.60;;;21.30;67.90;;;;;;5036029;28;20233;-95
2022/08/27 07:05:20;;;;;;;8.57;3.13;;;21.30;68.00;;;;;;5034602;28;20273;-95
2022/08/27 07:07:47;;;;;;;4.37;2.37;;;21.40;67.80;;;;;;5036139;28;20871;-94
2022/08/27 07:10:15;;;;;;;8.57;3.33;;;21.40;67.40;;;;;;5034771;28;20229;-94
2022/08/27 07:12:45;;;;;;;7.57;3.47;;;21.50;67.40;;;;;;5034230;28;20200;-95
2022/08/27 07:15:12;;;;;;;9.67;3.93;;;21.60;67.50;;;;;;5033433;28;20303;-95
2022/08/27 07:17:43;;;;;;;8.83;3.63;;;21.70;67.60;;;;;;5033403;28;20711;-95
2022/08/27 07:20:11;;;;;;;9.37;3.73;;;21.70;67.20;;;;;;5032130;28;20210;-93
2022/08/27 07:22:39;;;;;;;12.53;4.03;;;21.80;67.00;;;;;;5033927;28;20211;-93
2022/08/27 07:25:08;;;;;;;11.30;3.80;;;21.90;66.80;;;;;;5033450;28;20236;-94
2022/08/27 07:27:35;;;;;;;12.67;3.77;;;22.00;66.70;;;;;;5032524;28;20201;-95
2022/08/27 07:30:07;;;;;;;6.03;2.83;;;22.00;66.70;;;;;;5036882;28;20346;-95
2022/08/27 07:32:35;;;;;;;8.13;3.47;;;22.10;66.20;;;;;;5035293;28;20208;-95
2022/08/27 07:35:03;;;;;;;9.93;3.57;;;22.20;66.30;;;;;;5033763;28;20665;-95
2022/08/27 07:37:33;;;;;;;10.60;4.20;;;22.30;66.30;;;;;;5034051;28;20226;-95
2022/08/27 07:40:01;;;;;;;15.80;5.37;;;22.30;66.00;;;;;;5036600;28;20280;-93
2022/08/27 07:45:56;;;;;;;9.33;3.73;;;22.40;66.00;;;;;;5034378;28;20211;-94
2022/08/27 07:48:26;;;;;;;6.37;3.23;;;22.50;65.80;;;;;;5033953;28;20232;-94
2022/08/27 07:50:56;;;;;;;7.13;3.07;;;22.60;65.80;;;;;;5039291;28;20232;-95
2022/08/27 07:53:27;;;;;;;9.43;3.97;;;22.60;65.60;;;;;;5039720;28;20196;-94
2022/08/27 07:55:55;;;;;;;3.80;2.00;;;22.70;65.20;;;;;;5028954;28;20521;-95
2022/08/27 07:58:23;;;;;;;6.43;2.60;;;22.80;65.10;;;;;;5034032;28;20257;-95
2022/08/27 08:00:59;;;;;;;10.30;7.47;;;22.80;65.00;;;;;;5033319;28;20201;-95
2022/08/27 08:03:27;;;;;;;10.47;4.33;;;22.90;65.10;;;;;;5032636;28;20630;-94
2022/08/27 08:05:56;;;;;;;6.80;2.93;;;22.90;65.00;;;;;;5033284;28;20208;-95
2022/08/27 08:08:38;;;;;;;8.90;2.87;;;23.10;64.90;;;;;;5032749;28;20204;-95
2022/08/27 08:11:06;;;;;;;7.70;3.47;;;23.10;64.10;;;;;;5032444;28;20240;-94
2022/08/27 08:13:33;;;;;;;5.80;2.40;;;23.20;64.50;;;;;;5032394;28;20879;-95
2022/08/27 08:16:04;;;;;;;6.23;2.70;;;23.20;64.40;;;;;;5032201;28;20517;-93
2022/08/27 08:18:32;;;;;;;8.40;3.27;;;23.30;64.40;;;;;;5031622;28;20232;-94
2022/08/27 08:21:01;;;;;;;9.70;3.53;;;23.30;64.20;;;;;;5031645;28;20211;-93
2022/08/27 08:23:28;;;;;;;7.43;2.40;;;23.40;63.80;;;;;;5031874;28;20204;-94
2022/08/27 08:25:59;;;;;;;6.57;2.97;;;23.40;63.60;;;;;;5031491;28;20232;-93
2022/08/27 08:28:29;;;;;;;11.07;3.80;;;23.50;63.40;;;;;;5032290;28;20731;-94
2022/08/27 08:30:59;;;;;;;9.10;3.37;;;23.50;63.30;;;;;;5031372;28;20233;-94
2022/08/27 08:33:27;;;;;;;7.93;3.30;;;23.60;63.40;;;;;;5031367;28;20278;-93
2022/08/27 08:36:04;;;;;;;10.23;3.23;;;23.60;63.30;;;;;;5030262;28;20196;-94
2022/08/27 08:38:33;;;;;;;6.83;3.10;;;23.70;62.60;;;;;;5031032;28;20304;-93
2022/08/27 08:41:00;;;;;;;9.07;3.43;;;23.80;63.10;;;;;;5032051;28;20213;-92
2022/08/27 08:43:33;;;;;;;10.07;4.27;;;23.90;63.30;;;;;;5031031;28;20219;-93
2022/08/27 08:46:08;;;;;;;8.53;3.33;;;24.00;62.40;;;;;;5030187;28;20315;-92
2022/08/27 08:48:39;;;;;;;10.77;3.50;;;24.10;61.80;;;;;;5046384;22;20957;-93
2022/08/27 08:51:15;;;;;;;5.60;2.33;;;24.10;61.60;;;;;;5050387;28;20234;-92
2022/08/27 08:53:50;;;;;;;11.60;4.23;;;24.20;61.10;;;;;;5050001;28;20200;-91
2022/08/27 08:56:22;;;;;;;8.73;3.40;;;24.30;60.90;;;;;;5049681;28;20664;-93
2022/08/27 08:58:56;;;;;;;7.83;2.70;;;24.40;60.50;;;;;;5049512;28;20712;-92
2022/08/27 09:01:26;;;;;;;10.63;4.23;;;24.50;60.40;;;;;;5049372;28;20208;-93
2022/08/27 09:03:57;;;;;;;8.10;3.17;;;24.50;60.30;;;;;;5049880;28;20211;-93
2022/08/27 09:06:37;;;;;;;11.43;4.20;;;24.60;60.30;;;;;;5049862;28;20208;-93
2022/08/27 09:09:26;;;;;;;7.80;2.80;;;24.70;60.20;;;;;;5049559;28;20196;-95
2022/08/27 09:11:59;;;;;;;7.70;3.43;;;24.80;60.00;;;;;;5049068;28;20259;-93
2022/08/27 09:14:35;;;;;;;7.90;3.33;;;24.90;60.20;;;;;;5049140;28;20200;-93
2022/08/27 09:17:04;;;;;;;7.23;3.23;;;25.10;59.70;;;;;;5047722;28;20215;-93
2022/08/27 09:19:34;;;;;;;7.73;3.30;;;25.30;59.80;;;;;;5049298;28;20196;-92
2022/08/27 09:22:10;;;;;;;8.67;3.57;;;25.50;59.50;;;;;;5048303;28;20307;-93
2022/08/27 09:24:44;;;;;;;9.80;4.13;;;25.70;59.30;;;;;;5047941;28;20234;-92
2022/08/27 09:27:13;;;;;;;7.40;2.97;;;25.90;58.90;;;;;;5048047;28;20204;-94
2022/08/27 09:29:48;;;;;;;7.83;3.30;;;26.20;59.10;;;;;;5048073;28;20674;-93
2022/08/27 09:32:15;;;;;;;8.03;3.30;;;26.40;57.80;;;;;;5047864;28;20839;-92
2022/08/27 09:34:45;;;;;;;9.83;3.53;;;26.60;58.40;;;;;;5048449;28;20211;-93
2022/08/27 09:40:03;;;;;;;9.23;3.27;;;27.00;56.90;;;;;;5050004;28;20224;-92
2022/08/27 09:42:34;;;;;;;8.63;3.43;;;27.20;57.00;;;;;;5048847;28;20212;-93
2022/08/27 09:45:06;;;;;;;7.40;3.30;;;27.40;56.80;;;;;;5047941;28;20192;-94
2022/08/27 09:47:42;;;;;;;10.43;4.10;;;27.60;56.80;;;;;;5047491;28;20291;-93
2022/08/27 09:50:13;;;;;;;6.83;3.30;;;27.80;55.20;;;;;;5047921;28;20232;-92
2022/08/27 09:52:53;;;;;;;7.23;3.53;;;28.10;55.60;;;;;;5058694;28;20230;-91
2022/08/27 09:55:39;;;;;;;8.17;3.73;;;28.30;54.60;;;;;;5060501;28;20203;-93
2022/08/27 09:58:07;;;;;;;5.57;2.80;;;28.50;54.00;;;;;;5056756;28;20246;-91
2022/08/27 10:00:41;;;;;;;7.37;3.40;;;28.60;54.60;;;;;;5057620;28;20212;-91
2022/08/27 10:03:09;;;;;;;6.07;3.03;;;28.70;54.00;;;;;;5052813;28;20219;-91
2022/08/27 10:05:42;;;;;;;6.80;3.33;;;28.80;53.50;;;;;;5050105;28;20220;-92
2022/08/27 10:08:19;;;;;;;6.27;3.10;;;28.80;52.70;;;;;;5049860;28;20567;-91
2022/08/27 10:10:53;;;;;;;7.47;3.07;;;28.80;52.50;;;;;;5049312;28;20278;-91
2022/08/27 10:13:23;;;;;;;7.27;3.50;;;28.80;52.30;;;;;;5048575;28;20195;-92
2022/08/27 10:16:05;;;;;;;6.80;3.30;;;28.80;52.60;;;;;;5048803;28;20264;-92
2022/08/27 10:18:45;;;;;;;7.00;2.97;;;28.80;51.60;;;;;;5048512;28;20240;-94
2022/08/27 10:21:21;;;;;;;6.30;3.17;;;28.70;51.60;;;;;;5048866;28;20633;-92
2022/08/27 10:23:59;;;;;;;7.27;3.13;;;28.60;51.10;;;;;;5050276;28;20556;-91
2022/08/27 10:26:33;;;;;;;4.93;2.20;;;28.50;51.30;;;;;;5048865;28;20200;-92
2022/08/27 10:29:13;;;;;;;5.73;2.43;;;28.40;51.70;;;;;;5052232;28;20211;-93
2022/08/27 10:31:58;;;;;;;7.57;2.43;;;28.30;51.50;;;;;;5058702;28;20707;-94
2022/08/27 10:34:40;;;;;;;8.53;3.97;;;28.30;52.20;;;;;;5055375;28;20204;-93
2022/08/27 10:37:19;;;;;;;6.87;2.63;;;28.20;51.40;;;;;;5052165;28;20204;-92
2022/08/27 10:40:02;;;;;;;7.30;3.17;;;28.20;51.80;;;;;;5051980;28;20564;-92
2022/08/27 10:42:36;;;;;;;7.17;3.07;;;28.20;51.80;;;;;;5052231;28;20188;-95
2022/08/27 10:45:24;;;;;;;9.47;3.40;;;28.30;52.00;;;;;;5046899;28;20211;-93
2022/08/27 10:48:15;;;;;;;7.53;3.00;;;28.40;51.80;;;;;;5030829;28;20665;-91
2022/08/27 10:51:07;;;;;;;7.73;3.70;;;28.50;51.30;;;;;;5031951;28;20232;-94
2022/08/27 10:53:45;;;;;;;6.63;2.97;;;28.70;51.60;;;;;;5039192;28;20242;-92
2022/08/27 10:56:16;;;;;;;6.90;2.97;;;28.80;51.60;;;;;;5050843;28;20201;-92
2022/08/27 10:58:55;;;;;;;7.63;3.43;;;29.00;51.70;;;;;;5050144;28;20536;-93
2022/08/27 11:01:34;;;;;;;7.00;2.90;;;29.20;50.70;;;;;;5033264;28;20251;-93
2022/08/27 11:04:10;;;;;;;7.40;3.20;;;29.30;51.10;;;;;;5047727;28;20263;-95
2022/08/27 11:06:43;;;;;;;7.83;3.70;;;29.40;50.40;;;;;;5035961;28;20211;-92
2022/08/27 11:09:17;;;;;;;5.27;2.63;;;29.50;50.70;;;;;;5032863;28;20622;-95
2022/08/27 11:11:51;;;;;;;7.43;2.97;;;29.60;50.10;;;;;;5032166;28;20692;-92
2022/08/27 11:14:28;;;;;;;6.40;3.00;;;29.70;50.00;;;;;;5031174;28;20235;-92
2022/08/27 11:16:59;;;;;;;7.53;3.50;;;29.80;50.30;;;;;;5030031;28;20841;-92
2022/08/27 11:19:53;;;;;;;6.17;2.67;;;29.90;49.80;;;;;;5030289;28;20212;-93
2022/08/27 11:22:38;;;;;;;5.63;2.93;;;29.90;49.10;;;;;;5029837;28;20314;-91
2022/08/27 11:28:01;;;;;;;8.53;3.77;;;30.20;48.40;;;;;;5022756;28;20216;-92
2022/08/27 11:30:41;;;;;;;6.90;3.30;;;30.40;49.00;;;;;;5029891;28;20668;-91
2022/08/27 11:33:14;;;;;;;7.82;3.35;;;30.50;48.30;;;;;;5029422;28;20215;-93
2022/08/27 11:36:09;;;;;;;5.37;2.87;;;30.60;48.50;;;;;;5029582;28;20286;-92
2022/08/27 11:38:45;;;;;;;5.70;2.73;;;30.60;47.80;;;;;;5029225;28;20278;-91
2022/08/27 11:41:37;;;;;;;7.47;3.67;;;30.70;48.00;;;;;;5029555;28;20216;-93
2022/08/27 11:44:04;;;;;;;9.23;3.75;;;30.70;47.40;;;;;;5030588;28;20218;-90
2022/08/27 11:46:43;;;;;;;8.20;3.25;;;30.80;48.10;;;;;;5050153;28;20211;-90
2022/08/27 11:49:10;;;;;;;8.15;3.75;;;30.90;47.10;;;;;;5054831;28;20657;-91
2022/08/27 11:51:39;;;;;;;6.70;3.63;;;31.00;48.00;;;;;;5049881;28;20228;-91
2022/08/27 11:54:09;;;;;;;6.13;3.25;;;31.10;47.20;;;;;;5061347;28;20284;-92
2022/08/27 11:56:45;;;;;;;5.97;2.97;;;31.10;47.10;;;;;;5071127;28;20576;-90
2022/08/27 11:59:28;;;;;;;7.30;2.80;;;31.20;46.20;;;;;;5063642;28;20222;-92
2022/08/27 12:02:11;;;;;;;6.70;2.45;;;31.30;46.10;;;;;;5063648;28;20208;-92
2022/08/27 12:04:41;;;;;;;4.13;2.47;;;31.40;46.00;;;;;;5053769;28;20311;-92
2022/08/27 12:07:28;;;;;;;5.30;2.75;;;31.50;46.50;;;;;;5051880;28;20204;-92
2022/08/27 12:10:31;;;;;;;8.77;4.03;;;31.50;45.40;;;;;;5051262;28;20253;-91
2022/08/27 12:13:17;;;;;;;7.22;3.58;;;31.50;46.00;;;;;;5055089;28;20360;-92
2022/08/27 12:16:12;;;;;;;8.27;4.05;;;31.50;45.40;;;;;;5051183;28;20266;-92
2022/08/27 12:18:59;;;;;;;7.20;3.97;;;31.50;45.20;;;;;;5049013;28;20223;-92
2022/08/27 12:21:40;;;;;;;6.28;2.90;;;31.50;45.40;;;;;;5049141;28;20300;-91
2022/08/27 12:24:43;;;;;;;7.55;3.47;;;31.40;45.90;;;;;;5048736;28;20727;-93
2022/08/27 12:27:34;;;;;;;7.97;3.50;;;31.40;45.40;;;;;;5048875;28;20203;-91
2022/08/27 12:30:07;;;;;;;6.40;3.07;;;31.50;45.30;;;;;;5049037;28;20212;-91
2022/08/27 12:32:45;;;;;;;7.03;3.63;;;31.40;45.40;;;;;;5048425;28;20232;-90
2022/08/27 12:35:14;;;;;;;8.13;3.35;;;31.40;45.40;;;;;;5048519;28;20204;-92
2022/08/27 12:37:55;;;;;;;10.35;4.03;;;31.40;45.30;;;;;;5047913;28;20253;-91
2022/08/27 12:40:24;;;;;;;5.75;3.28;;;31.30;45.20;;;;;;5049001;28;20258;-93
2022/08/27 12:42:53;;;;;;;3.92;2.35;;;31.30;44.70;;;;;;5055724;28;20204;-91
2022/08/27 12:48:11;;;;;;;8.37;3.80;;;31.30;44.90;;;;;;5049802;28;20297;-92
2022/08/27 12:50:40;;;;;;;4.95;2.45;;;31.40;45.10;;;;;;5048135;28;20207;-93
2022/08/27 12:53:41;;;;;;;6.25;3.40;;;31.40;45.40;;;;;;5048598;28;20239;-92
2022/08/27 12:56:28;;;;;;;6.75;3.58;;;31.50;45.40;;;;;;5049544;28;20294;-93
2022/08/27 12:59:03;;;;;;;6.95;3.13;;;31.60;44.70;;;;;;5053504;28;20235;-93
2022/08/27 13:01:48;;;;;;;3.93;1.97;;;31.60;44.30;;;;;;5069704;28;20199;-91
2022/08/27 13:04:21;;;;;;;6.47;3.30;;;31.60;44.20;;;;;;5051755;28;20290;-91
2022/08/27 13:06:48;;;;;;;6.53;2.97;;;31.60;44.00;;;;;;5048940;28;20834;-90
2022/08/27 13:09:15;;;;;;;4.95;2.85;;;31.70;44.70;;;;;;5049290;28;20270;-92
2022/08/27 13:11:48;;;;;;;8.40;3.90;;;31.70;44.40;;;;;;5048646;28;20228;-92
2022/08/27 13:14:19;;;;;;;6.53;3.13;;;31.70;44.20;;;;;;5047911;28;20211;-93
2022/08/27 13:16:51;;;;;;;5.32;2.35;;;31.80;44.40;;;;;;5047946;28;20938;-92
2022/08/27 13:19:26;;;;;;;7.88;3.97;;;31.80;44.30;;;;;;5048309;28;20902;-94
2022/08/27 13:21:54;;;;;;;8.48;3.13;;;31.90;44.10;;;;;;5048402;28;20710;-93
2022/08/27 13:24:29;;;;;;;4.70;2.65;;;32.00;43.90;;;;;;5047129;28;20644;-92
2022/08/27 13:26:56;;;;;;;6.80;3.17;;;32.00;43.00;;;;;;5047765;28;20291;-92
2022/08/27 13:29:24;;;;;;;7.72;3.28;;;32.00;43.30;;;;;;5048138;28;20228;-92
2022/08/27 13:31:54;;;;;;;5.22;2.55;;;31.90;43.60;;;;;;5047423;28;20724;-92
2022/08/27 13:34:24;;;;;;;6.43;3.50;;;31.90;43.50;;;;;;5047581;28;20277;-93
2022/08/27 13:36:58;;;;;;;7.25;3.58;;;31.80;43.80;;;;;;5047394;28;20235;-92
2022/08/27 13:39:27;;;;;;;8.48;4.03;;;31.90;44.00;;;;;;5047343;28;20262;-93
2022/08/27 13:44:44;;;;;;;7.72;3.25;;;32.00;43.50;;;;;;5048815;28;20206;-93
2022/08/27 13:47:20;;;;;;;9.55;2.83;;;32.10;43.60;;;;;;5049714;28;20207;-93
2022/08/27 13:50:00;;;;;;;6.45;3.35;;;32.20;43.10;;;;;;5048388;28;20302;-92
2022/08/27 13:54:11;;;;;;;5.22;2.88;;;32.30;42.80;;;;;;5060040;28;20228;-91
2022/08/27 13:55:27;;;;;;;3.85;2.00;;;32.40;42.80;;;;;;5061259;28;20218;-93